Joao Camara, Brazil
Current Conditions -  °F | °C
As of 3:00 AM on Wednesday 26 Nov 2014 (Local Time) from SBNT Reporting Station
Scattered Clouds Scattered Clouds  
Wind Chill: 77°   Ceiling: Unl
Heat Index: 79°   Visibility: 6mi
Dew Point: 70°   Wind: 14mph
Humidity: 78%   Direction: 130°SE
Pressure: 29.88"   Gusts: NA
Location:  5.54°S, 35.82°W
Report Text: SBNT 260600Z 13012KT 9999 SCT021 25/21 Q1012
Loading
Personal Weather Stations






























Interactive Weather Map New forecast layout! Learn more

10-Day Weather Forecast

Advertisements
Track Severe Weather on mobile